Time;durP1;ratioP1;P1;durP2;ratioP2;P2;SDS_P1;SDS_P2;PMS_P1;PMS_P2;Temp;Humidity;BMP_temperature;BMP_pressure;BME280_temperature;BME280_humidity;BME280_pressure;Samples;Min_cycle;Max_cycle;Signal;HPM_P1;HPM_P2
2021/04/17 00:00:09;;;;;;;;;;;22.20;41.70;;;;;;1033559;28;19902;-72
2021/04/17 00:00:40;;;;;;;;;;;22.20;41.30;;;;;;1033626;28;19960;-72
2021/04/17 00:01:11;;;;;;;;;;;22.20;40.90;;;;;;1040964;28;19937;-72
2021/04/17 00:01:43;;;;;;;;;;;22.20;40.70;;;;;;1041410;28;19901;-73
2021/04/17 00:02:16;;;;;;;;;;;22.10;40.80;;;;;;1040639;28;19909;-73
2021/04/17 00:02:47;;;;;;;;;;;22.10;40.70;;;;;;1040189;28;19913;-73
2021/04/17 00:03:18;;;;;;;;;;;22.10;40.80;;;;;;1037572;28;19901;-73
2021/04/17 00:03:49;;;;;;;;;;;22.10;41.00;;;;;;1037200;28;19906;-74
2021/04/17 00:04:21;;;;;;;;;;;22.10;41.00;;;;;;1037878;28;19901;-73
2021/04/17 00:04:52;;;;;;;;;;;22.10;41.00;;;;;;1038063;28;20331;-74
2021/04/17 00:05:23;;;;;;;;;;;22.10;41.00;;;;;;1038059;28;19977;-73
2021/04/17 00:05:54;;;;;;;;;;;22.00;41.20;;;;;;1037907;28;20234;-73
2021/04/17 00:06:25;;;;;;;;;;;22.00;41.20;;;;;;1037949;28;19959;-73
2021/04/17 00:06:56;;;;;;;;;;;22.00;41.00;;;;;;1036829;28;19916;-73
2021/04/17 00:07:27;;;;;;;;;;;21.90;41.30;;;;;;1036729;28;19952;-73
2021/04/17 00:07:59;;;;;;;;;;;21.90;41.20;;;;;;1037157;28;20411;-72
2021/04/17 00:08:30;;;;;;;;;;;21.90;41.40;;;;;;1037605;28;19902;-72
2021/04/17 00:09:01;;;;;;;;;;;21.80;41.70;;;;;;1037557;28;19901;-72
2021/04/17 00:09:33;;;;;;;;;;;21.90;42.10;;;;;;1037010;28;19908;-71
2021/04/17 00:10:05;;;;;;;;;;;21.80;41.90;;;;;;1037359;28;19901;-72
2021/04/17 00:10:36;;;;;;;;;;;21.70;41.70;;;;;;1036908;28;19963;-72
2021/04/17 00:11:07;;;;;;;;;;;21.70;41.70;;;;;;1035667;28;19941;-72
2021/04/17 00:11:39;;;;;;;;;;;21.60;41.90;;;;;;1037120;28;20366;-72
2021/04/17 00:12:12;;;;;;;;;;;21.60;42.20;;;;;;1037524;28;19913;-72
2021/04/17 00:12:44;;;;;;;;;;;21.60;42.20;;;;;;1037521;28;19964;-72
2021/04/17 00:13:15;;;;;;;;;;;21.60;42.40;;;;;;1037477;28;19902;-72
2021/04/17 00:13:47;;;;;;;;;;;21.60;42.50;;;;;;1041197;28;19905;-72
2021/04/17 00:14:22;;;;;;;;;;;21.50;42.10;;;;;;1041258;28;20318;-71
2021/04/17 00:14:53;;;;;;;;;;;21.50;42.40;;;;;;1041437;28;20389;-72
2021/04/17 00:15:24;;;;;;;;;;;21.40;42.40;;;;;;1040492;28;19901;-72
2021/04/17 00:15:55;;;;;;;;;;;21.40;42.60;;;;;;1040976;28;19915;-71
2021/04/17 00:16:26;;;;;;;;;;;21.30;42.60;;;;;;1040903;28;19905;-72
2021/04/17 00:16:57;;;;;;;;;;;21.30;43.30;;;;;;1041145;28;19901;-73
2021/04/17 00:17:29;;;;;;;;;;;21.20;43.30;;;;;;1040300;28;19912;-72
2021/04/17 00:18:00;;;;;;;;;;;21.20;43.20;;;;;;1035666;28;19924;-74
2021/04/17 00:18:31;;;;;;;;;;;21.20;42.90;;;;;;1037227;28;19967;-72
2021/04/17 00:19:02;;;;;;;;;;;21.00;43.20;;;;;;1036645;28;19928;-72
2021/04/17 00:19:35;;;;;;;;;;;21.00;43.30;;;;;;1042710;28;20255;-71
2021/04/17 00:20:06;;;;;;;;;;;21.00;43.20;;;;;;1042912;28;19909;-71
2021/04/17 00:20:37;;;;;;;;;;;21.00;43.30;;;;;;1038577;28;20260;-72
2021/04/17 00:21:08;;;;;;;;;;;20.90;43.20;;;;;;1040729;28;20266;-72
2021/04/17 00:21:39;;;;;;;;;;;20.90;43.40;;;;;;1035124;28;19916;-72
2021/04/17 00:22:10;;;;;;;;;;;20.90;43.60;;;;;;1037299;28;19927;-72
2021/04/17 00:22:42;;;;;;;;;;;20.90;43.40;;;;;;1037192;28;20435;-72
2021/04/17 00:23:13;;;;;;;;;;;20.90;43.50;;;;;;1037346;28;19914;-72
2021/04/17 00:23:44;;;;;;;;;;;20.80;44.00;;;;;;1036504;28;20000;-72
2021/04/17 00:24:15;;;;;;;;;;;20.80;43.60;;;;;;1036209;28;19967;-72
2021/04/17 00:24:46;;;;;;;;;;;20.70;43.30;;;;;;1035614;28;20317;-72
2021/04/17 00:25:17;;;;;;;;;;;20.70;43.40;;;;;;1037027;28;19948;-72
2021/04/17 00:25:48;;;;;;;;;;;20.70;43.50;;;;;;1037021;28;19956;-72
2021/04/17 00:26:19;;;;;;;;;;;20.60;43.40;;;;;;1037604;28;19971;-72
2021/04/17 00:26:50;;;;;;;;;;;20.60;43.60;;;;;;1039278;28;19941;-72
2021/04/17 00:27:21;;;;;;;;;;;20.60;43.80;;;;;;1034145;28;19913;-72
2021/04/17 00:27:52;;;;;;;;;;;20.60;43.70;;;;;;1035083;28;19905;-71
2021/04/17 00:28:23;;;;;;;;;;;20.60;43.70;;;;;;1035729;28;19913;-72
2021/04/17 00:28:54;;;;;;;;;;;20.50;43.50;;;;;;1034888;28;19914;-72
2021/04/17 00:29:25;;;;;;;;;;;20.50;43.60;;;;;;1034413;28;19940;-72
2021/04/17 00:29:56;;;;;;;;;;;20.50;43.70;;;;;;1039464;28;20243;-71
2021/04/17 00:30:27;;;;;;;;;;;20.50;43.80;;;;;;1039447;28;19905;-72
2021/04/17 00:30:58;;;;;;;;;;;20.40;43.80;;;;;;1035668;28;19905;-72
2021/04/17 00:31:30;;;;;;;;;;;20.50;43.90;;;;;;1032119;28;19905;-72
2021/04/17 00:32:02;;;;;;;;;;;20.40;44.10;;;;;;1033531;28;19905;-73
2021/04/17 00:32:33;;;;;;;;;;;20.40;44.10;;;;;;1035562;28;20235;-72
2021/04/17 00:33:04;;;;;;;;;;;20.40;43.80;;;;;;1037390;28;20405;-72
2021/04/17 00:33:35;;;;;;;;;;;20.40;43.90;;;;;;1040632;28;20472;-72
2021/04/17 00:34:07;;;;;;;;;;;20.40;43.40;;;;;;1036519;28;19917;-72
2021/04/17 00:34:38;;;;;;;;;;;20.40;43.60;;;;;;1036903;28;19990;-73
2021/04/17 00:35:09;;;;;;;;;;;20.40;43.80;;;;;;1041067;28;20389;-72
2021/04/17 00:35:40;;;;;;;;;;;20.40;43.90;;;;;;1038502;28;19901;-72
2021/04/17 00:36:11;;;;;;;;;;;20.40;44.00;;;;;;1040819;28;19988;-72
2021/04/17 00:36:42;;;;;;;;;;;20.40;44.10;;;;;;1042728;28;19920;-72
2021/04/17 00:37:13;;;;;;;;;;;20.40;43.80;;;;;;1038097;28;19913;-72
2021/04/17 00:37:44;;;;;;;;;;;20.40;43.90;;;;;;1038340;28;19967;-73
2021/04/17 00:38:16;;;;;;;;;;;20.30;44.20;;;;;;1035344;28;19964;-72
2021/04/17 00:38:47;;;;;;;;;;;20.30;44.20;;;;;;1036101;28;19957;-73
2021/04/17 00:39:18;;;;;;;;;;;20.30;44.10;;;;;;1037290;28;19905;-72
2021/04/17 00:39:50;;;;;;;;;;;20.30;44.30;;;;;;1036714;28;20366;-72
2021/04/17 00:40:21;;;;;;;;;;;20.30;44.40;;;;;;1039354;28;19975;-71
2021/04/17 00:40:52;;;;;;;;;;;20.30;44.10;;;;;;1040224;28;19991;-72
2021/04/17 00:41:23;;;;;;;;;;;20.20;44.10;;;;;;1041069;28;20366;-72
2021/04/17 00:41:54;;;;;;;;;;;20.10;44.30;;;;;;1040140;28;19921;-73
2021/04/17 00:42:26;;;;;;;;;;;20.10;44.40;;;;;;1036330;28;19928;-72
2021/04/17 00:42:57;;;;;;;;;;;20.10;44.70;;;;;;1035886;28;19920;-72
2021/04/17 00:43:28;;;;;;;;;;;20.00;44.90;;;;;;1033105;28;19905;-72
2021/04/17 00:43:59;;;;;;;;;;;20.00;44.80;;;;;;1040236;28;19905;-72
2021/04/17 00:44:33;;;;;;;;;;;19.90;44.80;;;;;;1035837;28;20323;-73
2021/04/17 00:45:05;;;;;;;;;;;19.90;44.90;;;;;;1039126;28;20411;-72
2021/04/17 00:45:36;;;;;;;;;;;19.90;45.10;;;;;;1040598;28;19909;-72
2021/04/17 00:46:07;;;;;;;;;;;19.90;45.50;;;;;;1040703;28;19912;-73
2021/04/17 00:46:38;;;;;;;;;;;19.90;45.40;;;;;;1039585;28;19909;-72
2021/04/17 00:47:09;;;;;;;;;;;19.80;45.30;;;;;;1036301;28;20342;-72
2021/04/17 00:47:43;;;;;;;;;;;19.80;45.40;;;;;;1036305;28;20303;-72
2021/04/17 00:48:15;;;;;;;;;;;19.80;45.30;;;;;;1035520;28;19937;-72
2021/04/17 00:48:46;;;;;;;;;;;19.70;45.30;;;;;;1036726;28;20023;-72
2021/04/17 00:49:17;;;;;;;;;;;19.70;45.60;;;;;;1033430;28;19905;-72
2021/04/17 00:49:48;;;;;;;;;;;19.60;45.60;;;;;;1036075;28;19910;-73
2021/04/17 00:50:19;;;;;;;;;;;19.60;45.70;;;;;;1036882;28;20316;-72
2021/04/17 00:50:51;;;;;;;;;;;19.60;45.90;;;;;;1037406;28;19999;-72
2021/04/17 00:51:22;;;;;;;;;;;19.60;45.90;;;;;;1036715;28;20327;-72
2021/04/17 00:51:53;;;;;;;;;;;19.60;45.90;;;;;;1036640;28;19917;-72
2021/04/17 00:52:24;;;;;;;;;;;19.50;45.90;;;;;;1036978;28;19916;-72
2021/04/17 00:52:55;;;;;;;;;;;19.50;46.10;;;;;;1033421;28;19905;-72
2021/04/17 00:53:26;;;;;;;;;;;19.50;46.40;;;;;;1033746;28;19906;-73
2021/04/17 00:53:57;;;;;;;;;;;19.50;46.40;;;;;;1036827;28;19905;-73
2021/04/17 00:54:28;;;;;;;;;;;19.40;46.30;;;;;;1038837;28;19909;-73
2021/04/17 00:54:59;;;;;;;;;;;19.40;46.40;;;;;;1040551;28;19920;-72
2021/04/17 00:55:30;;;;;;;;;;;19.40;46.40;;;;;;1036947;28;20228;-72
2021/04/17 00:56:09;;;;;;;;;;;19.40;46.70;;;;;;1037409;28;19909;-72
2021/04/17 00:56:40;;;;;;;;;;;19.40;46.70;;;;;;1033523;28;19917;-73
2021/04/17 00:57:11;;;;;;;;;;;19.30;46.60;;;;;;1039067;28;19909;-75
2021/04/17 00:57:42;;;;;;;;;;;19.30;46.70;;;;;;1039224;28;19913;-74
2021/04/17 00:58:13;;;;;;;;;;;19.30;46.60;;;;;;1032926;28;19910;-75
2021/04/17 00:58:44;;;;;;;;;;;19.30;46.90;;;;;;1030947;28;19906;-75
2021/04/17 00:59:15;;;;;;;;;;;19.30;46.80;;;;;;1033064;28;19913;-75
2021/04/17 00:59:47;;;;;;;;;;;19.30;46.70;;;;;;1028587;28;20075;-75
2021/04/17 01:00:18;;;;;;;;;;;19.20;46.70;;;;;;1033090;28;20372;-73
2021/04/17 01:00:49;;;;;;;;;;;19.20;46.80;;;;;;1032798;28;20340;-74
2021/04/17 01:01:21;;;;;;;;;;;19.20;46.80;;;;;;1036484;28;19921;-73
2021/04/17 01:01:52;;;;;;;;;;;19.20;46.90;;;;;;1035706;28;19995;-74
2021/04/17 01:02:28;;;;;;;;;;;19.10;46.80;;;;;;1036102;28;19975;-72
2021/04/17 01:03:02;;;;;;;;;;;19.20;47.00;;;;;;1036698;28;21415;-73
2021/04/17 01:03:57;;;;;;;;;;;19.10;47.10;;;;;;1036742;28;19917;-73
2021/04/17 01:04:31;;;;;;;;;;;19.10;47.30;;;;;;1027522;28;20005;-76
2021/04/17 01:05:05;;;;;;;;;;;19.10;47.30;;;;;;1041248;28;19908;-76
2021/04/17 01:05:38;;;;;;;;;;;19.00;47.30;;;;;;1036679;28;19916;-75
2021/04/17 01:06:30;;;;;;;;;;;19.00;47.40;;;;;;1036429;28;19905;-74
2021/04/17 01:07:05;;;;;;;;;;;19.00;47.40;;;;;;1033108;28;20426;-75
2021/04/17 01:07:38;;;;;;;;;;;19.00;47.50;;;;;;1034744;28;19917;-73
2021/04/17 01:08:17;;;;;;;;;;;19.00;47.50;;;;;;1037245;28;19920;-73
2021/04/17 01:09:03;;;;;;;;;;;18.90;47.50;;;;;;1037275;28;20248;-73
2021/04/17 01:09:34;;;;;;;;;;;18.90;47.60;;;;;;1036044;28;19917;-73
2021/04/17 01:10:13;;;;;;;;;;;18.90;47.50;;;;;;1036283;28;20001;-74
2021/04/17 01:10:47;;;;;;;;;;;18.80;47.80;;;;;;1036877;28;20343;-75
2021/04/17 01:11:22;;;;;;;;;;;18.80;47.80;;;;;;1036402;28;19923;-74
2021/04/17 01:12:05;;;;;;;;;;;18.70;47.90;;;;;;1039280;28;20507;-76
2021/04/17 01:12:42;;;;;;;;;;;18.70;48.00;;;;;;1041068;28;19909;-75
2021/04/17 01:13:14;;;;;;;;;;;18.60;48.10;;;;;;1033701;28;20336;-75
2021/04/17 01:13:45;;;;;;;;;;;18.60;48.30;;;;;;1035556;28;19909;-76
2021/04/17 01:14:17;;;;;;;;;;;18.60;48.30;;;;;;1037109;28;19905;-77
2021/04/17 01:14:49;;;;;;;;;;;18.50;48.40;;;;;;1036663;28;19906;-76
2021/04/17 01:15:21;;;;;;;;;;;18.50;48.60;;;;;;1036988;28;19910;-77
2021/04/17 01:15:52;;;;;;;;;;;18.50;48.50;;;;;;1041093;28;19913;-77
2021/04/17 01:16:23;;;;;;;;;;;18.50;48.50;;;;;;1037025;28;20356;-76
2021/04/17 01:16:55;;;;;;;;;;;18.50;48.50;;;;;;1033012;28;19972;-78
2021/04/17 01:17:26;;;;;;;;;;;18.50;48.60;;;;;;1032547;28;19960;-77
2021/04/17 01:17:59;;;;;;;;;;;18.40;48.50;;;;;;1028999;28;19906;-78
2021/04/17 01:18:31;;;;;;;;;;;18.40;48.50;;;;;;1029807;28;19986;-77
2021/04/17 01:19:07;;;;;;;;;;;18.40;48.60;;;;;;1033664;28;19905;-77
2021/04/17 01:19:38;;;;;;;;;;;18.40;48.80;;;;;;1037120;28;19928;-78
2021/04/17 01:20:09;;;;;;;;;;;18.40;48.70;;;;;;1036995;28;20399;-78
2021/04/17 01:20:52;;;;;;;;;;;18.40;48.70;;;;;;1037059;28;19905;-77
2021/04/17 01:21:24;;;;;;;;;;;18.30;48.70;;;;;;1037002;28;19992;-78
2021/04/17 01:21:55;;;;;;;;;;;18.30;49.00;;;;;;1035120;28;19905;-78
2021/04/17 01:22:27;;;;;;;;;;;18.20;49.20;;;;;;1033013;28;19906;-76
2021/04/17 01:23:09;;;;;;;;;;;18.20;49.30;;;;;;1036220;28;19984;-75
2021/04/17 01:23:43;;;;;;;;;;;18.10;49.30;;;;;;1037075;28;19905;-75
2021/04/17 01:24:16;;;;;;;;;;;18.10;49.50;;;;;;1039421;28;19916;-76
2021/04/17 01:25:07;;;;;;;;;;;18.10;49.70;;;;;;1040991;28;20351;-75
2021/04/17 01:25:46;;;;;;;;;;;18.10;49.60;;;;;;1036380;28;19905;-76
2021/04/17 01:26:18;;;;;;;;;;;18.00;49.50;;;;;;1040013;28;19955;-75
2021/04/17 01:26:49;;;;;;;;;;;18.00;49.80;;;;;;1036529;28;19909;-74
2021/04/17 01:27:20;;;;;;;;;;;17.90;49.80;;;;;;1037139;28;19917;-75
2021/04/17 01:27:51;;;;;;;;;;;17.90;49.90;;;;;;1037161;28;19909;-75
2021/04/17 01:28:23;;;;;;;;;;;17.80;49.90;;;;;;1037292;28;19905;-75
2021/04/17 01:28:56;;;;;;;;;;;17.80;50.00;;;;;;1037304;28;19967;-74
2021/04/17 01:29:28;;;;;;;;;;;17.70;50.00;;;;;;1037237;28;19912;-75
2021/04/17 01:29:59;;;;;;;;;;;17.70;50.20;;;;;;1037338;28;20239;-74
2021/04/17 01:30:31;;;;;;;;;;;17.70;50.40;;;;;;1041012;28;19905;-75
2021/04/17 01:31:03;;;;;;;;;;;17.60;50.20;;;;;;1044616;28;19905;-75
2021/04/17 01:31:35;;;;;;;;;;;17.60;50.30;;;;;;1045163;28;20247;-74
2021/04/17 01:32:13;;;;;;;;;;;17.50;50.60;;;;;;1044611;28;19911;-74
2021/04/17 01:32:45;;;;;;;;;;;17.50;50.80;;;;;;1039891;28;20000;-74
2021/04/17 01:33:17;;;;;;;;;;;17.40;51.00;;;;;;1037822;28;19905;-74
2021/04/17 01:33:51;;;;;;;;;;;17.40;51.20;;;;;;1036856;28;20359;-75
2021/04/17 01:34:23;;;;;;;;;;;17.30;51.00;;;;;;1036923;28;19905;-74
2021/04/17 01:34:54;;;;;;;;;;;17.30;51.20;;;;;;1037863;28;19941;-74
2021/04/17 01:35:25;;;;;;;;;;;17.30;51.40;;;;;;1040297;28;19912;-74
2021/04/17 01:35:57;;;;;;;;;;;17.20;51.70;;;;;;1036927;28;19906;-74
2021/04/17 01:36:29;;;;;;;;;;;17.20;51.80;;;;;;1033238;28;20283;-74
2021/04/17 01:37:01;;;;;;;;;;;17.10;51.90;;;;;;1037040;28;19933;-74
2021/04/17 01:37:58;;;;;;;;;;;17.00;51.90;;;;;;1036982;28;19913;-75
2021/04/17 01:38:39;;;;;;;;;;;17.00;51.90;;;;;;1038833;28;19920;-72
2021/04/17 01:39:12;;;;;;;;;;;17.00;52.10;;;;;;1044214;28;20345;-74
2021/04/17 01:39:43;;;;;;;;;;;16.90;52.20;;;;;;1045000;28;20231;-75
2021/04/17 01:40:14;;;;;;;;;;;17.00;52.30;;;;;;1042600;28;19915;-75
2021/04/17 01:40:47;;;;;;;;;;;16.90;52.30;;;;;;1039090;28;19946;-75
2021/04/17 01:41:20;;;;;;;;;;;16.90;52.30;;;;;;1038382;28;19992;-75
2021/04/17 01:41:57;;;;;;;;;;;16.90;52.40;;;;;;1043179;28;19919;-74
2021/04/17 01:42:28;;;;;;;;;;;16.90;52.50;;;;;;1042040;28;19911;-75
2021/04/17 01:42:59;;;;;;;;;;;16.80;52.60;;;;;;1041344;28;20332;-75
2021/04/17 01:43:31;;;;;;;;;;;16.80;52.80;;;;;;1040305;28;19905;-74
2021/04/17 01:44:04;;;;;;;;;;;16.80;52.80;;;;;;1033476;28;19906;-74
2021/04/17 01:44:42;;;;;;;;;;;16.80;52.80;;;;;;1036197;28;20301;-75
2021/04/17 01:45:16;;;;;;;;;;;16.70;52.80;;;;;;1034263;28;19929;-76
2021/04/17 01:45:48;;;;;;;;;;;16.80;52.90;;;;;;1034277;28;19905;-74
2021/04/17 01:46:21;;;;;;;;;;;16.80;53.00;;;;;;1036890;28;19916;-74
2021/04/17 01:46:56;;;;;;;;;;;16.70;53.20;;;;;;1036261;28;19951;-74
2021/04/17 01:47:27;;;;;;;;;;;16.70;53.30;;;;;;1036480;28;19906;-74
2021/04/17 01:48:00;;;;;;;;;;;16.60;53.50;;;;;;1038007;28;19913;-75
2021/04/17 01:48:31;;;;;;;;;;;16.70;53.50;;;;;;1036792;28;19905;-74
2021/04/17 01:49:05;;;;;;;;;;;16.60;53.60;;;;;;1036982;28;19948;-74
2021/04/17 01:49:38;;;;;;;;;;;16.60;53.60;;;;;;1036883;28;19909;-75
2021/04/17 01:50:12;;;;;;;;;;;16.60;53.70;;;;;;1037021;28;20316;-75
2021/04/17 01:50:45;;;;;;;;;;;16.60;53.80;;;;;;1037278;28;19909;-75
2021/04/17 01:51:17;;;;;;;;;;;16.50;53.90;;;;;;1043488;28;19916;-75
2021/04/17 01:51:49;;;;;;;;;;;16.50;54.00;;;;;;1045199;28;19905;-74
2021/04/17 01:52:23;;;;;;;;;;;16.50;54.10;;;;;;1040899;28;19905;-74
2021/04/17 01:52:55;;;;;;;;;;;16.50;54.00;;;;;;1040174;28;19944;-75
2021/04/17 01:53:28;;;;;;;;;;;16.50;54.00;;;;;;1036907;28;20055;-75
2021/04/17 01:54:01;;;;;;;;;;;16.40;54.10;;;;;;1037061;28;19906;-75
2021/04/17 01:54:53;;;;;;;;;;;16.40;54.10;;;;;;1037248;28;19909;-76
2021/04/17 01:55:24;;;;;;;;;;;16.40;54.20;;;;;;1037301;28;19916;-74
2021/04/17 01:55:57;;;;;;;;;;;16.40;54.30;;;;;;1037441;28;19905;-77
2021/04/17 01:56:29;;;;;;;;;;;16.30;54.20;;;;;;1037387;28;20385;-76
2021/04/17 01:57:02;;;;;;;;;;;16.30;54.20;;;;;;1037353;28;19912;-77
2021/04/17 01:57:33;;;;;;;;;;;16.30;54.30;;;;;;1037645;28;19905;-78
2021/04/17 01:58:04;;;;;;;;;;;16.30;54.50;;;;;;1037543;28;19984;-78
2021/04/17 01:58:36;;;;;;;;;;;16.30;54.50;;;;;;1037543;28;19988;-75
2021/04/17 01:59:07;;;;;;;;;;;16.20;54.50;;;;;;1037501;28;19909;-78
2021/04/17 01:59:39;;;;;;;;;;;16.20;54.50;;;;;;1037317;28;19909;-75
2021/04/17 02:00:11;;;;;;;;;;;16.20;54.60;;;;;;1037004;28;19906;-76
2021/04/17 02:00:42;;;;;;;;;;;16.20;54.80;;;;;;1037162;28;19926;-74
2021/04/17 02:01:13;;;;;;;;;;;16.10;54.80;;;;;;1036863;28;20000;-74
2021/04/17 02:01:45;;;;;;;;;;;16.10;54.90;;;;;;1036899;28;20000;-74
2021/04/17 02:02:16;;;;;;;;;;;16.10;54.90;;;;;;1036918;28;20324;-74
2021/04/17 02:02:47;;;;;;;;;;;16.10;55.00;;;;;;1037349;28;19902;-75
2021/04/17 02:03:18;;;;;;;;;;;16.00;55.10;;;;;;1044956;28;19901;-74
2021/04/17 02:03:49;;;;;;;;;;;16.00;55.20;;;;;;1045036;28;19901;-74
2021/04/17 02:04:21;;;;;;;;;;;16.00;55.20;;;;;;1044879;28;19912;-74
2021/04/17 02:04:52;;;;;;;;;;;16.00;55.20;;;;;;1044661;28;19949;-75
2021/04/17 02:05:23;;;;;;;;;;;15.90;55.40;;;;;;1041078;28;19908;-75
2021/04/17 02:05:54;;;;;;;;;;;15.80;55.50;;;;;;1040995;28;19946;-74
2021/04/17 02:06:25;;;;;;;;;;;15.80;55.60;;;;;;1044989;28;19901;-75
2021/04/17 02:06:56;;;;;;;;;;;15.80;55.90;;;;;;1045083;28;19900;-75
2021/04/17 02:07:27;;;;;;;;;;;15.80;55.90;;;;;;1045089;28;19901;-74
2021/04/17 02:07:58;;;;;;;;;;;15.80;56.00;;;;;;1043131;28;19901;-74
2021/04/17 02:08:34;;;;;;;;;;;15.80;56.00;;;;;;1033053;28;19902;-74
2021/04/17 02:09:05;;;;;;;;;;;15.70;56.10;;;;;;1033064;28;19910;-74
2021/04/17 02:09:36;;;;;;;;;;;15.70;56.20;;;;;;1037479;28;19909;-74
2021/04/17 02:10:08;;;;;;;;;;;15.70;56.10;;;;;;1036366;28;19901;-73
2021/04/17 02:10:39;;;;;;;;;;;15.70;56.20;;;;;;1036914;28;19901;-74
2021/04/17 02:11:10;;;;;;;;;;;15.70;56.20;;;;;;1032308;28;19940;-74
2021/04/17 02:11:41;;;;;;;;;;;15.60;56.40;;;;;;1033202;28;20319;-75
2021/04/17 02:12:12;;;;;;;;;;;15.60;56.60;;;;;;1032659;28;20228;-74
2021/04/17 02:12:43;;;;;;;;;;;15.50;56.60;;;;;;1032915;28;19913;-75
2021/04/17 02:13:15;;;;;;;;;;;15.40;56.90;;;;;;1036511;28;19909;-74
2021/04/17 02:13:46;;;;;;;;;;;15.40;56.90;;;;;;1037229;28;19944;-74
2021/04/17 02:14:17;;;;;;;;;;;15.40;57.10;;;;;;1041005;28;19923;-75
2021/04/17 02:14:48;;;;;;;;;;;15.40;57.10;;;;;;1040490;28;19901;-75
2021/04/17 02:15:19;;;;;;;;;;;15.30;57.20;;;;;;1040407;28;19901;-74
2021/04/17 02:15:50;;;;;;;;;;;15.40;57.20;;;;;;1037011;28;19901;-74
2021/04/17 02:16:36;;;;;;;;;;;15.30;57.50;;;;;;1036079;28;19905;-73
2021/04/17 02:17:26;;;;;;;;;;;15.30;57.70;;;;;;1032716;28;20232;-73
2021/04/17 02:18:00;;;;;;;;;;;15.20;58.00;;;;;;1036528;28;19912;-75
2021/04/17 02:18:35;;;;;;;;;;;15.10;58.00;;;;;;1038087;28;19917;-74
2021/04/17 02:19:10;;;;;;;;;;;15.10;58.30;;;;;;1040501;28;19924;-74
2021/04/17 02:19:48;;;;;;;;;;;15.10;58.40;;;;;;1035266;28;19901;-74
2021/04/17 02:20:22;;;;;;;;;;;15.00;58.50;;;;;;1032510;28;19906;-73
2021/04/17 02:21:04;;;;;;;;;;;15.00;59.20;;;;;;1028624;28;19957;-74
2021/04/17 02:21:37;;;;;;;;;;;14.90;58.70;;;;;;1031954;28;19906;-74
2021/04/17 02:22:08;;;;;;;;;;;14.90;58.80;;;;;;1035277;28;19917;-74
2021/04/17 02:22:41;;;;;;;;;;;14.80;59.00;;;;;;1036339;28;20236;-74
2021/04/17 02:23:13;;;;;;;;;;;14.80;59.00;;;;;;1036821;28;19910;-74
2021/04/17 02:23:44;;;;;;;;;;;14.80;58.90;;;;;;1036992;28;19923;-74
2021/04/17 02:24:16;;;;;;;;;;;14.80;59.00;;;;;;1036854;28;19905;-75
2021/04/17 02:24:47;;;;;;;;;;;14.80;59.10;;;;;;1036812;28;19916;-74
2021/04/17 02:25:19;;;;;;;;;;;14.70;59.30;;;;;;1036521;28;20349;-74
2021/04/17 02:25:50;;;;;;;;;;;14.70;59.30;;;;;;1033525;28;19906;-75
2021/04/17 02:26:21;;;;;;;;;;;14.70;59.40;;;;;;1036540;28;19909;-75
2021/04/17 02:26:52;;;;;;;;;;;14.60;59.60;;;;;;1036902;28;19913;-74
2021/04/17 02:27:24;;;;;;;;;;;14.60;59.50;;;;;;1037135;28;20008;-75
2021/04/17 02:27:55;;;;;;;;;;;14.70;59.60;;;;;;1037037;28;19905;-75
2021/04/17 02:28:27;;;;;;;;;;;14.60;59.80;;;;;;1040862;28;19905;-76
2021/04/17 02:28:58;;;;;;;;;;;14.50;59.80;;;;;;1039552;28;19905;-75
2021/04/17 02:29:29;;;;;;;;;;;14.50;59.80;;;;;;1039760;28;19909;-74
2021/04/17 02:30:00;;;;;;;;;;;14.50;59.70;;;;;;1039806;28;20295;-74
2021/04/17 02:30:31;;;;;;;;;;;14.50;59.70;;;;;;1036633;28;19905;-75
2021/04/17 02:31:03;;;;;;;;;;;14.60;59.70;;;;;;1034651;28;20280;-75
2021/04/17 02:31:35;;;;;;;;;;;14.50;59.70;;;;;;1036824;28;19906;-75
2021/04/17 02:32:13;;;;;;;;;;;14.50;59.80;;;;;;1036764;28;19906;-75
2021/04/17 02:32:44;;;;;;;;;;;14.40;59.90;;;;;;1037320;28;20019;-75
2021/04/17 02:33:15;;;;;;;;;;;14.40;60.10;;;;;;1035729;28;19921;-75
2021/04/17 02:33:46;;;;;;;;;;;14.40;60.00;;;;;;1040796;28;19905;-75
2021/04/17 02:34:18;;;;;;;;;;;14.40;60.00;;;;;;1041035;28;20365;-75
2021/04/17 02:34:50;;;;;;;;;;;14.40;60.10;;;;;;1041399;28;19905;-75
2021/04/17 02:35:21;;;;;;;;;;;14.30;60.20;;;;;;1040335;28;19912;-75
2021/04/17 02:35:52;;;;;;;;;;;14.30;60.20;;;;;;1036464;28;19905;-75
2021/04/17 02:36:23;;;;;;;;;;;14.30;60.30;;;;;;1036990;28;19988;-75
2021/04/17 02:36:54;;;;;;;;;;;14.30;60.40;;;;;;1041238;28;20250;-74
2021/04/17 02:37:25;;;;;;;;;;;14.30;60.60;;;;;;1044666;28;20246;-75
2021/04/17 02:37:56;;;;;;;;;;;14.20;60.50;;;;;;1040736;28;20393;-75
2021/04/17 02:38:27;;;;;;;;;;;14.20;60.70;;;;;;1039866;28;19905;-74
2021/04/17 02:38:58;;;;;;;;;;;14.20;60.80;;;;;;1034369;28;19925;-74
2021/04/17 02:39:29;;;;;;;;;;;14.20;61.00;;;;;;1036247;28;20306;-73
2021/04/17 02:40:00;;;;;;;;;;;14.10;60.90;;;;;;1036530;28;20320;-74
2021/04/17 02:40:31;;;;;;;;;;;14.10;61.00;;;;;;1036136;28;19913;-75
2021/04/17 02:41:02;;;;;;;;;;;14.00;61.30;;;;;;1036704;28;19964;-75
2021/04/17 02:41:34;;;;;;;;;;;14.00;61.50;;;;;;1036186;28;19912;-74
2021/04/17 02:42:05;;;;;;;;;;;13.90;61.60;;;;;;1035884;28;20339;-75
2021/04/17 02:42:36;;;;;;;;;;;14.00;61.70;;;;;;1036714;28;20403;-74
2021/04/17 02:43:07;;;;;;;;;;;13.90;61.90;;;;;;1036722;28;19905;-74
2021/04/17 02:43:39;;;;;;;;;;;13.90;61.90;;;;;;1036727;28;20298;-75
2021/04/17 02:44:10;;;;;;;;;;;13.90;62.00;;;;;;1039689;28;19912;-74
2021/04/17 02:44:41;;;;;;;;;;;13.80;62.10;;;;;;1040436;28;19905;-75
2021/04/17 02:45:12;;;;;;;;;;;13.80;62.20;;;;;;1041136;28;19912;-75
2021/04/17 02:45:43;;;;;;;;;;;13.80;62.30;;;;;;1044892;28;19908;-74
2021/04/17 02:46:14;;;;;;;;;;;13.80;62.40;;;;;;1036738;28;19995;-75
2021/04/17 02:46:45;;;;;;;;;;;13.70;62.50;;;;;;1035214;28;19913;-74
2021/04/17 02:47:17;;;;;;;;;;;13.70;62.60;;;;;;1037098;28;20236;-75
2021/04/17 02:47:48;;;;;;;;;;;13.70;62.70;;;;;;1041206;28;19909;-74
2021/04/17 02:48:19;;;;;;;;;;;13.70;62.90;;;;;;1045037;28;19942;-75
2021/04/17 02:48:51;;;;;;;;;;;13.70;62.90;;;;;;1043709;28;19905;-74
2021/04/17 02:49:22;;;;;;;;;;;13.70;62.80;;;;;;1040398;28;19940;-75
2021/04/17 02:49:53;;;;;;;;;;;13.60;62.80;;;;;;1032501;28;19906;-74
2021/04/17 02:50:24;;;;;;;;;;;13.60;63.00;;;;;;1036430;28;19905;-74
2021/04/17 02:50:55;;;;;;;;;;;13.60;63.10;;;;;;1032526;28;19917;-73
2021/04/17 02:51:26;;;;;;;;;;;13.60;63.20;;;;;;1031422;28;19981;-74
2021/04/17 02:51:57;;;;;;;;;;;13.60;63.40;;;;;;1030438;28;20004;-74
2021/04/17 02:52:28;;;;;;;;;;;13.50;63.30;;;;;;1036794;28;19909;-75
2021/04/17 02:52:59;;;;;;;;;;;13.60;63.20;;;;;;1036776;28;20339;-75
2021/04/17 02:53:30;;;;;;;;;;;13.60;63.20;;;;;;1036850;28;20302;-75
2021/04/17 02:54:01;;;;;;;;;;;13.60;63.20;;;;;;1036168;28;19905;-74
2021/04/17 02:54:32;;;;;;;;;;;13.60;63.20;;;;;;1036514;28;19913;-74
2021/04/17 02:55:04;;;;;;;;;;;13.50;64.00;;;;;;1036302;28;19909;-74
2021/04/17 02:55:35;;;;;;;;;;;13.50;63.40;;;;;;1033306;28;19976;-75
2021/04/17 02:56:06;;;;;;;;;;;13.50;63.60;;;;;;1031358;28;19905;-76
2021/04/17 02:56:37;;;;;;;;;;;13.50;63.60;;;;;;1036753;28;19909;-76
2021/04/17 02:57:08;;;;;;;;;;;13.40;63.70;;;;;;1035943;28;19917;-75
2021/04/17 02:57:39;;;;;;;;;;;13.50;63.80;;;;;;1041123;28;19995;-74
2021/04/17 02:58:10;;;;;;;;;;;13.40;63.80;;;;;;1040732;28;19905;-74
2021/04/17 02:58:41;;;;;;;;;;;13.40;63.90;;;;;;1040867;28;19902;-75
2021/04/17 02:59:12;;;;;;;;;;;13.40;63.90;;;;;;1040579;28;19920;-74
2021/04/17 02:59:43;;;;;;;;;;;13.40;64.00;;;;;;1036804;28;19906;-74
2021/04/17 03:00:17;;;;;;;;;;;13.40;64.10;;;;;;1036763;28;19940;-74
2021/04/17 03:00:48;;;;;;;;;;;13.30;64.30;;;;;;1036786;28;19901;-74
2021/04/17 03:01:19;;;;;;;;;;;13.30;64.40;;;;;;1036771;28;19953;-74
2021/04/17 03:01:50;;;;;;;;;;;13.30;64.50;;;;;;1036829;28;19901;-75
2021/04/17 03:02:21;;;;;;;;;;;13.30;64.60;;;;;;1036738;28;20335;-75
2021/04/17 03:02:53;;;;;;;;;;;13.30;64.60;;;;;;1036475;28;19901;-75
2021/04/17 03:03:24;;;;;;;;;;;13.20;64.60;;;;;;1044137;28;19940;-75
2021/04/17 03:03:55;;;;;;;;;;;13.20;64.70;;;;;;1037408;28;19912;-74
2021/04/17 03:04:26;;;;;;;;;;;13.20;64.60;;;;;;1040382;28;19912;-75
2021/04/17 03:04:57;;;;;;;;;;;13.20;64.60;;;;;;1037771;28;19991;-74
2021/04/17 03:05:28;;;;;;;;;;;13.20;64.60;;;;;;1032523;28;19916;-74
2021/04/17 03:05:59;;;;;;;;;;;13.20;64.50;;;;;;1028330;28;19906;-75
2021/04/17 03:06:30;;;;;;;;;;;13.20;64.50;;;;;;1032593;28;19964;-74
2021/04/17 03:07:02;;;;;;;;;;;13.20;64.50;;;;;;1032558;28;19902;-74
2021/04/17 03:07:33;;;;;;;;;;;13.20;64.60;;;;;;1037044;28;20374;-74
2021/04/17 03:08:04;;;;;;;;;;;13.20;64.60;;;;;;1040871;28;20363;-75